createdAt,value
2023-01-27T00:01:22.932Z,-2.59
2023-01-27T00:03:52.415Z,-2.69
2023-01-27T00:06:20.838Z,-2.73
2023-01-27T00:08:50.597Z,-2.48
2023-01-27T00:11:36.518Z,-2.51
2023-01-27T00:14:04.952Z,-2.49
2023-01-27T00:16:33.267Z,-2.63
2023-01-27T00:19:01.571Z,-2.46
2023-01-27T00:21:47.333Z,-2.77
2023-01-27T00:24:34.544Z,-2.48
2023-01-27T00:27:03.192Z,-2.48
2023-01-27T00:29:31.561Z,-2.49
2023-01-27T00:32:16.951Z,-2.49
2023-01-27T00:34:45.299Z,-2.48
2023-01-27T00:37:13.671Z,-2.48
2023-01-27T00:39:43.762Z,-2.47
2023-01-27T00:42:12.156Z,-2.51
2023-01-27T00:45:00.405Z,-2.51
2023-01-27T00:47:28.757Z,-2.49
2023-01-27T00:49:57.065Z,-2.56
2023-01-27T00:52:25.529Z,-2.51
2023-01-27T00:54:55.349Z,-2.48
2023-01-27T00:57:23.678Z,-2.47
2023-01-27T00:59:52.127Z,-2.45
2023-01-27T01:02:20.439Z,-2.41
2023-01-27T01:04:48.812Z,-2.37
2023-01-27T01:07:17.104Z,-2.33
2023-01-27T01:09:45.745Z,-2.38
2023-01-27T01:12:15.465Z,-2.45
2023-01-27T01:14:43.845Z,-2.42
2023-01-27T01:17:12.098Z,-2.39
2023-01-27T01:19:40.487Z,-2.42
2023-01-27T01:22:08.787Z,-2.42
2023-01-27T01:24:37.113Z,-2.43
2023-01-27T01:27:05.655Z,-2.57
2023-01-27T01:29:35.608Z,-2.34
2023-01-27T01:32:03.981Z,-2.34
2023-01-27T01:34:32.226Z,-2.40
2023-01-27T01:37:00.572Z,-2.41
2023-01-27T01:39:29.422Z,-2.38
2023-01-27T01:41:57.744Z,-2.37
2023-01-27T01:44:28.027Z,-2.35
2023-01-27T01:46:58.000Z,-2.35
2023-01-27T01:49:31.038Z,-2.52
2023-01-27T01:52:02.769Z,-2.27
2023-01-27T01:54:35.393Z,-2.28
2023-01-27T01:57:07.906Z,-2.31
2023-01-27T01:59:40.372Z,-2.30
2023-01-27T02:02:13.751Z,-2.31
2023-01-27T02:04:46.947Z,-2.37
2023-01-27T02:07:21.578Z,-2.38
2023-01-27T02:09:50.196Z,-2.36
2023-01-27T02:12:18.498Z,-2.34
2023-01-27T02:14:46.895Z,-2.30
2023-01-27T02:17:17.376Z,-2.33
2023-01-27T02:19:55.068Z,-2.22
2023-01-27T02:22:29.539Z,-2.39
2023-01-27T02:25:06.533Z,-2.27
2023-01-27T02:27:36.246Z,-2.22
2023-01-27T02:30:04.630Z,-2.24
2023-01-27T02:32:34.958Z,-2.28
2023-01-27T02:35:03.938Z,-2.30
2023-01-27T02:37:34.271Z,-2.33
2023-01-27T02:40:04.433Z,-2.26
2023-01-27T02:42:32.826Z,-2.24
2023-01-27T02:45:02.567Z,-2.21
2023-01-27T02:47:30.907Z,-2.22
2023-01-27T02:49:59.463Z,-2.22
2023-01-27T02:52:27.811Z,-2.25
2023-01-27T02:54:56.144Z,-2.26
2023-01-27T02:57:24.440Z,-2.39
2023-01-27T02:59:52.899Z,-2.45
2023-01-27T03:02:23.135Z,-2.26
2023-01-27T03:04:51.577Z,-2.24
2023-01-27T03:07:19.874Z,-2.28
2023-01-27T03:09:48.157Z,-2.26
2023-01-27T03:12:22.542Z,-2.30
2023-01-27T03:15:10.056Z,-2.29
2023-01-27T03:17:57.643Z,-2.49
2023-01-27T03:20:26.236Z,-2.30
2023-01-27T03:22:54.632Z,-2.18
2023-01-27T03:25:23.174Z,-2.26
2023-01-27T03:27:51.541Z,-2.29
2023-01-27T03:30:20.196Z,-2.31
2023-01-27T03:32:50.055Z,-2.33
2023-01-27T03:35:18.951Z,-2.56
2023-01-27T03:38:05.158Z,-2.69
2023-01-27T03:40:50.763Z,-2.33
2023-01-27T03:43:36.642Z,-2.26
2023-01-27T03:46:20.617Z,-3.07
2023-01-27T03:48:55.362Z,-2.24
2023-01-27T03:51:26.129Z,-2.48
2023-01-27T03:53:54.989Z,-2.26
2023-01-27T03:56:24.256Z,-2.31
2023-01-27T03:58:52.584Z,-2.31
2023-01-27T04:01:22.659Z,-2.46
2023-01-27T04:04:09.161Z,-2.30
2023-01-27T04:06:54.505Z,-2.33
2023-01-27T04:09:26.001Z,-2.33
2023-01-27T04:11:56.589Z,-2.28
2023-01-27T04:14:26.857Z,-2.43
2023-01-27T04:16:57.304Z,-2.27
2023-01-27T04:19:26.331Z,-2.25
2023-01-27T04:21:56.582Z,-2.23
2023-01-27T04:24:25.079Z,-2.25
2023-01-27T04:26:56.114Z,-2.27
2023-01-27T04:29:25.835Z,-2.25
2023-01-27T04:31:54.620Z,-2.23
2023-01-27T04:34:23.292Z,-2.27
2023-01-27T04:36:52.413Z,-2.25
2023-01-27T04:39:22.118Z,-2.23
2023-01-27T04:41:51.374Z,-2.36
2023-01-27T04:44:21.460Z,-2.21
2023-01-27T04:46:50.415Z,-2.18
2023-01-27T04:49:19.294Z,-2.42
2023-01-27T04:51:47.728Z,-2.19
2023-01-27T04:54:16.163Z,-2.25
2023-01-27T04:56:59.574Z,-2.29
2023-01-27T04:59:28.166Z,-2.50
2023-01-27T05:01:56.709Z,-2.28
2023-01-27T05:04:26.516Z,-2.15
2023-01-27T05:06:55.301Z,-2.16
2023-01-27T05:09:23.933Z,-2.17
2023-01-27T05:11:53.661Z,-2.22
2023-01-27T05:14:23.751Z,-2.22
2023-01-27T05:16:52.463Z,-2.56
2023-01-27T05:19:21.095Z,-2.14
2023-01-27T05:21:49.463Z,-2.11
2023-01-27T05:24:18.091Z,-2.07
2023-01-27T05:26:46.542Z,-2.03
2023-01-27T05:29:16.239Z,-2.02
2023-01-27T05:31:44.588Z,-1.96
2023-01-27T05:34:12.935Z,-1.93
2023-01-27T05:36:41.263Z,-2.19
2023-01-27T05:39:12.310Z,-2.27
2023-01-27T05:41:40.747Z,-1.93
2023-01-27T05:44:12.554Z,-1.95
2023-01-27T05:46:43.605Z,-2.21
2023-01-27T05:49:12.200Z,-1.93
2023-01-27T05:51:41.266Z,-1.91
2023-01-27T05:54:10.410Z,-1.89
2023-01-27T05:56:39.337Z,-1.91
2023-01-27T05:59:07.992Z,-1.99
2023-01-27T06:01:37.695Z,-2.07
2023-01-27T06:04:07.950Z,-1.91
2023-01-27T06:06:36.325Z,-1.92
2023-01-27T06:09:05.136Z,-1.91
2023-01-27T06:11:33.556Z,-1.88
2023-01-27T06:14:01.882Z,-1.92
2023-01-27T06:16:30.358Z,-1.94
2023-01-27T06:18:58.816Z,-1.95
2023-01-27T06:21:28.634Z,-1.97
2023-01-27T06:23:58.390Z,-1.99
2023-01-27T06:26:26.827Z,-1.92
2023-01-27T06:28:56.962Z,-1.90
2023-01-27T06:31:26.110Z,-1.88
2023-01-27T06:33:54.552Z,-1.91
2023-01-27T06:36:23.561Z,-1.76
2023-01-27T06:38:53.389Z,-1.83
2023-01-27T06:41:21.750Z,-1.87
2023-01-27T06:43:50.140Z,-2.02
2023-01-27T06:46:18.539Z,-2.06
2023-01-27T06:48:46.910Z,-2.02
2023-01-27T06:51:15.691Z,-1.98
2023-01-27T06:53:44.056Z,-1.96
2023-01-27T06:56:15.679Z,-2.09
2023-01-27T06:58:44.675Z,-2.27
2023-01-27T07:01:13.184Z,-2.20
2023-01-27T07:03:43.620Z,-2.25
2023-01-27T07:06:13.003Z,-2.11
2023-01-27T07:08:41.539Z,-2.42
2023-01-27T07:11:09.909Z,-2.30
2023-01-27T07:13:39.722Z,-2.61
2023-01-27T07:16:08.752Z,-2.18
2023-01-27T07:18:37.225Z,-2.11
2023-01-27T07:21:06.327Z,-2.12
2023-01-27T07:23:34.897Z,-2.27
2023-01-27T07:26:09.877Z,-2.26
2023-01-27T07:28:45.601Z,-2.08
2023-01-27T07:31:14.142Z,-2.28
2023-01-27T07:33:42.573Z,-2.13
2023-01-27T07:36:11.519Z,-2.37
2023-01-27T07:38:40.454Z,-1.88
2023-01-27T07:41:09.204Z,-1.97
2023-01-27T07:43:37.595Z,-2.21
2023-01-27T07:46:07.359Z,-2.24
2023-01-27T07:48:35.912Z,-2.19
2023-01-27T07:51:04.405Z,-2.19
2023-01-27T07:53:32.808Z,-2.38
2023-01-27T07:56:01.605Z,-2.20
2023-01-27T07:58:29.908Z,-2.01
2023-01-27T08:00:58.301Z,-1.94
2023-01-27T08:03:28.649Z,-1.79
2023-01-27T08:05:56.982Z,-1.88
2023-01-27T08:08:25.534Z,-1.82
2023-01-27T08:10:54.889Z,-1.77
2023-01-27T08:13:23.320Z,-1.73
2023-01-27T08:15:57.344Z,-1.68
2023-01-27T08:18:26.007Z,-1.85
2023-01-27T08:20:56.493Z,-1.70
2023-01-27T08:23:25.103Z,-1.77
2023-01-27T08:25:54.439Z,-1.75
2023-01-27T08:28:24.239Z,-1.66
2023-01-27T08:30:53.361Z,-1.59
2023-01-27T08:33:23.038Z,-1.63
2023-01-27T08:35:51.955Z,-1.39
2023-01-27T08:38:22.017Z,-1.42
2023-01-27T08:40:50.530Z,-1.54
2023-01-27T08:43:19.869Z,-1.40
2023-01-27T08:45:48.479Z,-1.36
2023-01-27T08:48:16.833Z,-1.32
2023-01-27T08:50:45.162Z,-1.24
2023-01-27T08:53:13.602Z,-1.02
2023-01-27T08:55:43.576Z,-1.23
2023-01-27T08:58:11.966Z,-1.43
2023-01-27T09:00:40.417Z,-1.51
2023-01-27T09:03:08.736Z,-1.46
2023-01-27T09:05:38.116Z,-1.50
2023-01-27T09:08:06.878Z,-1.47
2023-01-27T09:10:39.257Z,-1.36
2023-01-27T09:13:09.267Z,-1.37
2023-01-27T09:15:38.258Z,-1.71
2023-01-27T09:18:07.285Z,-1.55
2023-01-27T09:20:37.294Z,-1.78
2023-01-27T09:23:05.895Z,-1.64
2023-01-27T09:25:34.249Z,-1.81
2023-01-27T09:28:02.618Z,-1.73
2023-01-27T09:30:32.431Z,-1.64
2023-01-27T09:33:01.741Z,-1.56
2023-01-27T09:35:37.821Z,-1.66
2023-01-27T09:38:07.394Z,-1.66
2023-01-27T09:40:48.904Z,-1.78
2023-01-27T09:43:39.542Z,-1.69
2023-01-27T09:46:24.990Z,-1.62
2023-01-27T09:49:15.725Z,-2.40
2023-01-27T09:51:59.194Z,-1.68
2023-01-27T09:54:54.428Z,-1.72
2023-01-27T09:57:35.401Z,-1.91
2023-01-27T10:00:23.457Z,-1.55
2023-01-27T10:03:18.148Z,-1.87
2023-01-27T10:06:24.894Z,-1.51
2023-01-27T10:09:24.843Z,-1.53
2023-01-27T10:12:00.999Z,-1.45
2023-01-27T10:14:40.882Z,-1.24
2023-01-27T10:17:22.124Z,-1.68
2023-01-27T10:20:08.875Z,-1.30
2023-01-27T10:22:48.248Z,-1.33
2023-01-27T10:25:26.713Z,-1.45
2023-01-27T10:27:58.902Z,-1.48
2023-01-27T10:30:35.178Z,-1.63
2023-01-27T10:33:17.766Z,-1.48
2023-01-27T10:35:53.765Z,-1.52
2023-01-27T10:38:35.318Z,-1.51
2023-01-27T10:41:12.368Z,-1.34
2023-01-27T10:43:52.829Z,-1.40
2023-01-27T10:46:32.678Z,-1.51
2023-01-27T10:49:09.097Z,-1.33
2023-01-27T10:51:43.392Z,-1.17
2023-01-27T10:54:17.668Z,-1.12
2023-01-27T10:56:49.529Z,-1.02
2023-01-27T10:59:24.963Z,-0.93
2023-01-27T11:01:57.692Z,-1.08
2023-01-27T11:04:34.625Z,-0.80
2023-01-27T11:07:05.562Z,-0.75
2023-01-27T11:09:37.344Z,-0.64
2023-01-27T11:12:11.097Z,-0.58
2023-01-27T11:14:47.007Z,-0.51
2023-01-27T11:17:21.542Z,-0.95
2023-01-27T11:20:00.993Z,-0.56
2023-01-27T11:22:38.494Z,-0.50
2023-01-27T11:25:18.084Z,-0.77
2023-01-27T11:28:01.619Z,-0.47
2023-01-27T11:30:36.916Z,-0.61
2023-01-27T11:33:13.110Z,-0.58
2023-01-27T11:35:41.552Z,-0.58
2023-01-27T11:38:17.904Z,-0.50
2023-01-27T11:40:50.149Z,-0.42
2023-01-27T11:43:21.467Z,-0.47
2023-01-27T11:45:51.602Z,-0.46
2023-01-27T11:48:23.419Z,-0.41
2023-01-27T11:50:52.318Z,-0.56
2023-01-27T11:53:27.854Z,-0.52
2023-01-27T11:56:00.729Z,-0.49
2023-01-27T11:58:34.033Z,-0.56
2023-01-27T12:01:05.622Z,-0.66
2023-01-27T12:03:49.995Z,-0.59
2023-01-27T12:06:27.915Z,-0.52
2023-01-27T12:08:57.715Z,-0.49
2023-01-27T12:11:27.935Z,-0.53
2023-01-27T12:13:59.101Z,-0.53
2023-01-27T12:16:43.799Z,-0.42
2023-01-27T12:19:25.340Z,-0.42
2023-01-27T12:21:58.164Z,-0.53
2023-01-27T12:24:32.095Z,-0.68
2023-01-27T12:27:01.949Z,-0.65
2023-01-27T12:29:42.898Z,-0.62
2023-01-27T12:32:18.078Z,-0.66
2023-01-27T12:34:50.573Z,-0.74
2023-01-27T12:37:23.849Z,-0.75
2023-01-27T12:40:00.600Z,-0.75
2023-01-27T12:42:40.541Z,-0.57
2023-01-27T12:45:35.202Z,-0.70
2023-01-27T12:48:17.952Z,-0.90
2023-01-27T12:50:56.859Z,-0.45
2023-01-27T12:53:27.934Z,-0.43
2023-01-27T12:56:03.166Z,-0.62
2023-01-27T12:58:37.710Z,-0.84
2023-01-27T13:01:09.329Z,-0.62
2023-01-27T13:03:43.573Z,-0.84
2023-01-27T13:06:17.496Z,-0.50
2023-01-27T13:08:46.541Z,-0.43
2023-01-27T13:11:34.597Z,-0.44
2023-01-27T13:14:03.060Z,-0.48
2023-01-27T13:16:32.368Z,-0.36
2023-01-27T13:19:02.535Z,-0.31
2023-01-27T13:21:36.722Z,-0.41
2023-01-27T13:24:11.907Z,-0.35
2023-01-27T13:26:43.137Z,-0.71
2023-01-27T13:29:17.281Z,-0.62
2023-01-27T13:31:52.151Z,-0.73
2023-01-27T13:34:29.920Z,-0.63
2023-01-27T13:37:03.766Z,-0.43
2023-01-27T13:39:49.387Z,-0.48
2023-01-27T13:42:24.992Z,-0.46
2023-01-27T13:45:00.591Z,-0.66
2023-01-27T13:47:35.310Z,-0.39
2023-01-27T13:50:11.093Z,-0.38
2023-01-27T13:52:39.720Z,-0.31
2023-01-27T13:55:13.700Z,-0.31
2023-01-27T13:57:59.238Z,-0.25
2023-01-27T14:00:37.288Z,-0.25
2023-01-27T14:03:38.296Z,-0.22
2023-01-27T14:06:19.764Z,-0.11
2023-01-27T14:09:03.543Z,-0.20
2023-01-27T14:11:39.922Z,-0.10
2023-01-27T14:14:23.404Z,-0.33
2023-01-27T14:17:07.707Z,-0.29
2023-01-27T14:19:51.254Z,-0.28
2023-01-27T14:22:28.858Z,-0.27
2023-01-27T14:25:02.756Z,-0.30
2023-01-27T14:27:36.849Z,-0.21
2023-01-27T14:30:16.376Z,-0.24
2023-01-27T14:32:52.140Z,-0.45
2023-01-27T14:35:30.343Z,-0.34
2023-01-27T14:38:10.222Z,-0.45
2023-01-27T14:40:51.103Z,-0.49
2023-01-27T14:43:29.399Z,-0.37
2023-01-27T14:46:06.486Z,-0.45
2023-01-27T14:48:51.957Z,-0.48
2023-01-27T14:51:31.539Z,-0.55
2023-01-27T14:54:20.954Z,-0.45
2023-01-27T14:57:06.035Z,-0.39
2023-01-27T14:59:45.980Z,-0.48
2023-01-27T15:02:31.181Z,-0.44
2023-01-27T15:05:09.778Z,-0.47
2023-01-27T15:07:45.530Z,-0.42
2023-01-27T15:10:24.034Z,-0.51
2023-01-27T15:13:31.881Z,-0.54
2023-01-27T15:16:35.316Z,-0.52
2023-01-27T15:19:36.074Z,-0.65
2023-01-27T15:22:20.482Z,-0.71
2023-01-27T15:25:07.902Z,-0.71
2023-01-27T15:27:36.416Z,-0.70
2023-01-27T15:30:09.674Z,-0.76
2023-01-27T15:32:39.120Z,-0.72
2023-01-27T15:35:35.135Z,-0.66
2023-01-27T15:38:20.290Z,-0.72
2023-01-27T15:41:04.945Z,-0.83
2023-01-27T15:43:34.057Z,-0.81
2023-01-27T15:46:23.842Z,-0.78
2023-01-27T15:48:52.433Z,-0.81
2023-01-27T15:51:23.127Z,-0.84
2023-01-27T15:53:56.400Z,-0.81
2023-01-27T15:56:48.869Z,-0.83
2023-01-27T15:59:22.446Z,-0.81
2023-01-27T16:02:01.178Z,-0.77
2023-01-27T16:04:32.184Z,-0.75
2023-01-27T16:07:05.863Z,-0.87
2023-01-27T16:09:41.052Z,-0.88
2023-01-27T16:12:32.195Z,-0.93
2023-01-27T16:15:23.953Z,-0.78
2023-01-27T16:18:01.448Z,-0.68
2023-01-27T16:20:32.003Z,-0.84
2023-01-27T16:23:07.070Z,-0.86
2023-01-27T16:25:43.053Z,-0.94
2023-01-27T16:28:19.311Z,-0.93
2023-01-27T16:30:56.770Z,-0.87
2023-01-27T16:33:29.627Z,-0.90
2023-01-27T16:36:06.391Z,-1.18
2023-01-27T16:38:40.223Z,-0.88
2023-01-27T16:41:19.406Z,-0.79
2023-01-27T16:43:52.754Z,-0.99
2023-01-27T16:46:29.214Z,-0.80
2023-01-27T16:48:57.784Z,-0.82
2023-01-27T16:51:28.626Z,-0.94
2023-01-27T16:54:00.446Z,-1.09
2023-01-27T16:56:30.575Z,-0.94
2023-01-27T16:59:05.523Z,-0.97
2023-01-27T17:01:41.859Z,-0.90
2023-01-27T17:04:20.176Z,-1.05
2023-01-27T17:06:50.175Z,-0.99
2023-01-27T17:09:25.809Z,-0.93
2023-01-27T17:11:55.797Z,-1.01
2023-01-27T17:14:32.100Z,-0.79
2023-01-27T17:17:02.373Z,-1.11
2023-01-27T17:19:34.244Z,-1.10
2023-01-27T17:22:04.532Z,-1.18
2023-01-27T17:24:37.484Z,-0.84
2023-01-27T17:27:10.149Z,-0.93
2023-01-27T17:29:40.533Z,-0.79
2023-01-27T17:32:21.737Z,-0.94
2023-01-27T17:34:52.058Z,-1.04
2023-01-27T17:37:22.911Z,-0.85
2023-01-27T17:39:56.902Z,-0.89
2023-01-27T17:42:27.932Z,-0.97
2023-01-27T17:44:57.149Z,-0.90
2023-01-27T17:47:25.595Z,-0.93
2023-01-27T17:49:54.370Z,-1.01
2023-01-27T17:52:27.708Z,-0.97
2023-01-27T17:55:06.171Z,-0.87
2023-01-27T17:57:36.293Z,-0.86
2023-01-27T18:00:09.897Z,-1.01
2023-01-27T18:02:43.734Z,-1.06
2023-01-27T18:05:19.926Z,-1.15
2023-01-27T18:07:48.861Z,-0.95
2023-01-27T18:10:27.157Z,-1.01
2023-01-27T18:12:55.729Z,-0.98
2023-01-27T18:15:43.976Z,-1.12
2023-01-27T18:18:25.100Z,-0.88
2023-01-27T18:21:06.325Z,-1.41
2023-01-27T18:23:37.500Z,-0.86
2023-01-27T18:26:15.418Z,-1.07
2023-01-27T18:28:45.945Z,-0.89
2023-01-27T18:31:18.650Z,-0.87
2023-01-27T18:33:48.292Z,-1.01
2023-01-27T18:36:24.336Z,-0.87
2023-01-27T18:38:53.407Z,-0.85
2023-01-27T18:41:27.651Z,-0.79
2023-01-27T18:43:56.652Z,-0.87
2023-01-27T18:46:27.140Z,-0.92
2023-01-27T18:48:59.734Z,-0.90
2023-01-27T18:51:28.371Z,-0.84
2023-01-27T18:53:57.152Z,-0.80
2023-01-27T18:56:27.236Z,-0.64
2023-01-27T18:58:55.676Z,-0.81
2023-01-27T19:01:26.000Z,-0.71
2023-01-27T19:03:57.546Z,-0.79
2023-01-27T19:06:27.661Z,-0.79
2023-01-27T19:08:56.731Z,-0.79
2023-01-27T19:11:28.899Z,-1.12
2023-01-27T19:13:57.382Z,-0.73
2023-01-27T19:16:28.146Z,-0.77
2023-01-27T19:18:56.931Z,-1.02
2023-01-27T19:21:25.171Z,-0.72
2023-01-27T19:23:53.949Z,-0.95
2023-01-27T19:26:24.566Z,-0.65
2023-01-27T19:28:57.352Z,-0.61
2023-01-27T19:31:26.965Z,-0.58
2023-01-27T19:33:56.859Z,-0.60
2023-01-27T19:36:30.884Z,-0.57
2023-01-27T19:39:03.212Z,-0.47
2023-01-27T19:41:32.015Z,-0.58
2023-01-27T19:44:02.710Z,-1.07
2023-01-27T19:46:32.585Z,-0.58
2023-01-27T19:49:01.184Z,-0.53
2023-01-27T19:51:29.847Z,-0.61
2023-01-27T19:53:59.092Z,-0.45
2023-01-27T19:56:33.036Z,-0.58
2023-01-27T19:59:02.777Z,-0.96
2023-01-27T20:01:31.299Z,-0.68
2023-01-27T20:03:59.883Z,-0.68
2023-01-27T20:06:30.996Z,-0.71
2023-01-27T20:09:04.088Z,-0.91
2023-01-27T20:11:37.393Z,-0.67
2023-01-27T20:14:09.765Z,-0.62
2023-01-27T20:16:39.493Z,-0.62
2023-01-27T20:19:09.614Z,-0.57
2023-01-27T20:21:39.107Z,-0.47
2023-01-27T20:24:10.078Z,-0.97
2023-01-27T20:26:40.284Z,-0.81
2023-01-27T20:29:11.683Z,-0.71
2023-01-27T20:31:41.556Z,-0.98
2023-01-27T20:34:11.458Z,-0.65
2023-01-27T20:36:41.330Z,-0.57
2023-01-27T20:39:11.116Z,-0.78
2023-01-27T20:41:40.970Z,-0.72
2023-01-27T20:44:14.684Z,-0.69
2023-01-27T20:46:44.485Z,-0.66
2023-01-27T20:49:14.057Z,-0.71
2023-01-27T20:51:43.748Z,-0.96
2023-01-27T20:54:14.615Z,-0.80
2023-01-27T20:56:44.104Z,-0.83
2023-01-27T20:59:15.780Z,-0.92
2023-01-27T21:01:46.916Z,-1.07
2023-01-27T21:04:16.665Z,-0.84
2023-01-27T21:06:46.724Z,-0.74
2023-01-27T21:09:17.342Z,-0.78
2023-01-27T21:11:47.504Z,-0.75
2023-01-27T21:14:19.810Z,-1.01
2023-01-27T21:16:49.743Z,-0.87
2023-01-27T21:19:19.613Z,-0.97
2023-01-27T21:21:49.710Z,-0.75
2023-01-27T21:24:19.636Z,-1.10
2023-01-27T21:26:52.130Z,-1.09
2023-01-27T21:29:25.380Z,-1.18
2023-01-27T21:31:54.414Z,-1.12
2023-01-27T21:34:24.269Z,-0.96
2023-01-27T21:36:56.043Z,-0.75
2023-01-27T21:39:25.452Z,-0.75
2023-01-27T21:42:12.597Z,-0.87
2023-01-27T21:45:13.710Z,-0.83
2023-01-27T21:47:42.548Z,-1.33
2023-01-27T21:50:15.122Z,-1.12
2023-01-27T21:52:46.835Z,-1.04
2023-01-27T21:55:18.444Z,-1.17
2023-01-27T21:57:48.609Z,-1.16
2023-01-27T22:00:21.581Z,-1.15
2023-01-27T22:02:55.030Z,-1.18
2023-01-27T22:05:23.669Z,-1.14
2023-01-27T22:07:52.350Z,-0.99
2023-01-27T22:10:22.695Z,-1.21
2023-01-27T22:12:52.436Z,-1.19
2023-01-27T22:15:22.455Z,-1.14
2023-01-27T22:17:50.884Z,-1.09
2023-01-27T22:20:20.065Z,-1.04
2023-01-27T22:22:48.408Z,-1.13
2023-01-27T22:25:17.863Z,-1.05
2023-01-27T22:27:46.492Z,-1.58
2023-01-27T22:30:16.299Z,-1.33
2023-01-27T22:32:51.122Z,-1.20
2023-01-27T22:35:20.004Z,-1.07
2023-01-27T22:37:49.266Z,-1.10
2023-01-27T22:40:18.396Z,-1.12
2023-01-27T22:42:46.689Z,-1.01
2023-01-27T22:45:15.455Z,-1.10
2023-01-27T22:47:45.488Z,-1.05
2023-01-27T22:50:14.008Z,-1.13
2023-01-27T22:52:42.445Z,-1.20
2023-01-27T22:55:13.871Z,-1.26
2023-01-27T22:57:42.333Z,-1.22
2023-01-27T23:00:11.972Z,-1.23
2023-01-27T23:02:40.295Z,-1.07
2023-01-27T23:05:10.655Z,-1.04
2023-01-27T23:07:39.049Z,-1.26
2023-01-27T23:10:08.451Z,-1.19
2023-01-27T23:12:36.797Z,-1.20
2023-01-27T23:15:05.866Z,-1.01
2023-01-27T23:17:34.272Z,-1.21
2023-01-27T23:20:02.733Z,-1.08
2023-01-27T23:22:32.496Z,-1.13
2023-01-27T23:25:00.794Z,-1.31
2023-01-27T23:27:29.688Z,-1.14
2023-01-27T23:29:58.086Z,-1.18
2023-01-27T23:32:26.438Z,-1.51
2023-01-27T23:34:54.825Z,-1.29
2023-01-27T23:37:23.123Z,-1.38
2023-01-27T23:39:52.924Z,-1.23
2023-01-27T23:42:21.737Z,-1.36
2023-01-27T23:44:50.179Z,-1.29
2023-01-27T23:47:18.733Z,-1.17
2023-01-27T23:49:47.415Z,-1.28
2023-01-27T23:52:15.790Z,-1.30
2023-01-27T23:54:44.105Z,-1.39
2023-01-27T23:57:13.822Z,-1.43
2023-01-27T23:59:42.560Z,-1.53
